Bow Saga — LADM7 — position and weather

sailwx.info

Track history (hours):
 
Tides and Currents Weather Stations Pressure Air Temp Water Temp Dewpoint Dewpoint Depression Visibility Wind Speed Wind Dir Waves Ship Positions

Bow Saga

Last reported at 2017-Oct-09 22:59 UTC. Time now 2017-Oct-22 06:26 UTC.
Position N 29°29' W 094°51'.
Warning: this ship's position is 12 days out of date.

Length 178 m; draft 11.7 m.

Type: Ship (hazmat cat A). MMSI: 258960000.

Date/timePositionNaut miles runAvg speedWind from/ knotsBaromVisibWave heightAir tempDewpointWater temp
2017-Oct-09 22:59N 29°29' W 094°51'511.5
2017-Oct-09 22:31N 29°33' W 094°55'510.3
2017-Oct-09 22:00N 29°38' W 094°58'5 9.6
2017-Oct-09 21:31N 29°42' W 095°00'4 7.0
2017-Oct-09 21:00N 29°44' W 095°03'3 5.1
2017-Oct-09 20:25N 29°44' W 095°07'1 0.0
2017-Oct-08 17:05N 29°44' W 095°08'0 0.0
2017-Oct-08 17:00N 29°44' W 095°08'1 1.5
2017-Oct-08 16:30N 29°44' W 095°07'3 5.3
2017-Oct-08 15:59N 29°45' W 095°04'3 7.0
2017-Oct-08 15:30N 29°42' W 095°01'5 9.2
2017-Oct-08 15:00N 29°39' W 094°58'611.7
2017-Oct-08 14:30N 29°34' W 094°55'812.1
2017-Oct-08 13:51N 29°27' W 094°50'  
2017-Oct-05 08:39N 29°26' W 094°50'410.9
2017-Oct-05 08:15N 29°30' W 094°52'310.8
2017-Oct-05 08:00N 29°32' W 094°54'611.1
2017-Oct-05 07:30N 29°36' W 094°57'510.3
2017-Oct-05 07:01N 29°41' W 094°59'4 6.9
2017-Oct-05 06:27N 29°44' W 095°02'3 6.8
2017-Oct-05 05:59N 29°46' W 095°05'1 0.0
2017-Oct-04 03:53N 29°45' W 095°06'1 2.0
2017-Oct-04 03:30N 29°46' W 095°05'2 4.9
2017-Oct-04 03:00N 29°44' W 095°03'3 5.7
2017-Oct-04 02:30N 29°42' W 095°01'5 9.1
2017-Oct-04 02:01N 29°38' W 094°58'2 3.9
2017-Oct-04 01:30N 29°37' W 094°59'2 3.0
2017-Oct-04 00:55N 29°37' W 095°01'0 0.0
2017-Oct-04 00:28N 29°37' W 095°01'0 0.0
2017-Oct-03 23:58N 29°37' W 095°01'0 0.0
2017-Oct-03 23:28N 29°37' W 095°01'0 0.0
2017-Oct-03 22:55N 29°37' W 095°01'0 0.0
2017-Oct-03 22:28N 29°37' W 095°01'0 0.0
2017-Oct-03 21:58N 29°37' W 095°01'0 0.0
2017-Oct-03 21:28N 29°37' W 095°01'0 0.0
2017-Oct-03 20:58N 29°37' W 095°01'0 0.0
2017-Oct-03 20:31N 29°37' W 095°01'0 0.0
2017-Oct-03 20:01N 29°37' W 095°01'0 0.0
2017-Oct-03 19:30N 29°37' W 095°01'0 0.0
2017-Oct-03 19:00N 29°37' W 095°01'0 0.0
2017-Oct-03 18:30N 29°37' W 095°01'0 0.0
2017-Oct-03 18:00N 29°37' W 095°01'0 0.0
2017-Oct-03 17:30N 29°37' W 095°01'0 0.0
2017-Oct-03 17:00N 29°37' W 095°01'0 0.0
2017-Oct-03 16:30N 29°37' W 095°01'0 0.0
2017-Oct-03 16:00N 29°37' W 095°01'0 0.0
2017-Oct-03 15:30N 29°37' W 095°01'0 0.0
2017-Oct-03 15:00N 29°37' W 095°01'0 0.0
2017-Oct-03 14:00N 29°37' W 095°01'0 0.0
2017-Oct-03 13:30N 29°37' W 095°01'0 0.0
2017-Oct-03 13:00N 29°37' W 095°01'0 0.0
2017-Oct-03 12:30N 29°37' W 095°01'0 0.0
2017-Oct-03 12:00N 29°37' W 095°01'0 0.0
2017-Oct-03 11:30N 29°37' W 095°01'0 0.0
2017-Oct-03 10:57N 29°37' W 095°01'0 0.2
2017-Oct-03 10:30N 29°37' W 095°01'0 0.0
2017-Oct-03 10:00N 29°37' W 095°01'0 0.0
2017-Oct-03 09:30N 29°37' W 095°01'0 0.0
2017-Oct-03 08:57N 29°37' W 095°01'0 0.0
2017-Oct-03 08:30N 29°37' W 095°01'0 0.0
2017-Oct-03 08:00N 29°37' W 095°01'0 0.0
2017-Oct-03 07:30N 29°37' W 095°01'0 0.0
2017-Oct-03 07:00N 29°37' W 095°01'0 0.0
2017-Oct-03 06:30N 29°37' W 095°01'0 0.0
2017-Oct-03 06:00N 29°37' W 095°01'0 0.0
2017-Oct-03 05:30N 29°37' W 095°01'0 0.0
2017-Oct-03 04:57N 29°37' W 095°01'0 0.0
2017-Oct-03 04:27N 29°37' W 095°01'0 0.0
2017-Oct-03 04:00N 29°37' W 095°01'0 0.0
2017-Oct-03 03:30N 29°37' W 095°01'0 0.0
2017-Oct-03 03:00N 29°37' W 095°01'0 0.0
2017-Oct-03 02:30N 29°37' W 095°01'0 0.0
2017-Oct-03 01:57N 29°37' W 095°01'0 0.0
2017-Oct-03 01:30N 29°37' W 095°01'0 0.0
2017-Oct-03 01:00N 29°37' W 095°01'0 0.0
2017-Oct-03 00:30N 29°37' W 095°01'0 0.0
2017-Oct-02 23:57N 29°37' W 095°01'0 0.0
2017-Oct-02 23:30N 29°37' W 095°01'0 0.0
2017-Oct-02 23:00N 29°37' W 095°01'0 0.0
2017-Oct-02 22:30N 29°37' W 095°01'0 0.0
2017-Oct-02 22:00N 29°37' W 095°01'1 1.7
2017-Oct-02 21:31N 29°37' W 095°00'4 7.5
2017-Oct-02 21:00N 29°35' W 094°56'612.6
2017-Oct-02 20:30N 29°30' W 094°52'  
Track history (hours):
 
Tides and Currents Weather Stations Pressure Air Temp Water Temp Dewpoint Dewpoint Depression Visibility Wind Speed Wind Dir Waves Ship Positions

Bow Saga

Last reported at 2017-Oct-09 22:59 UTC. Time now 2017-Oct-22 06:26 UTC.
Position N 29°29' W 094°51'.
Warning: this ship's position is 12 days out of date.

Length 178 m; draft 11.7 m.

Type: Ship (hazmat cat A). MMSI: 258960000.

Date/timePositionNaut miles runAvg speedWind from/ knotsBaromVisibWave heightAir tempDewpointWater temp
2017-Oct-09 22:59N 29°29' W 094°51'511.5
2017-Oct-09 22:31N 29°33' W 094°55'510.3
2017-Oct-09 22:00N 29°38' W 094°58'5 9.6
2017-Oct-09 21:31N 29°42' W 095°00'4 7.0
2017-Oct-09 21:00N 29°44' W 095°03'3 5.1
2017-Oct-09 20:25N 29°44' W 095°07'1 0.0
2017-Oct-08 17:05N 29°44' W 095°08'0 0.0
2017-Oct-08 17:00N 29°44' W 095°08'1 1.5
2017-Oct-08 16:30N 29°44' W 095°07'3 5.3
2017-Oct-08 15:59N 29°45' W 095°04'3 7.0
2017-Oct-08 15:30N 29°42' W 095°01'5 9.2
2017-Oct-08 15:00N 29°39' W 094°58'611.7
2017-Oct-08 14:30N 29°34' W 094°55'812.1
2017-Oct-08 13:51N 29°27' W 094°50'  
2017-Oct-05 08:39N 29°26' W 094°50'410.9
2017-Oct-05 08:15N 29°30' W 094°52'310.8
2017-Oct-05 08:00N 29°32' W 094°54'611.1
2017-Oct-05 07:30N 29°36' W 094°57'510.3
2017-Oct-05 07:01N 29°41' W 094°59'4 6.9
2017-Oct-05 06:27N 29°44' W 095°02'3 6.8
2017-Oct-05 05:59N 29°46' W 095°05'1 0.0
2017-Oct-04 03:53N 29°45' W 095°06'1 2.0
2017-Oct-04 03:30N 29°46' W 095°05'2 4.9
2017-Oct-04 03:00N 29°44' W 095°03'3 5.7
2017-Oct-04 02:30N 29°42' W 095°01'5 9.1
2017-Oct-04 02:01N 29°38' W 094°58'2 3.9
2017-Oct-04 01:30N 29°37' W 094°59'2 3.0
2017-Oct-04 00:55N 29°37' W 095°01'0 0.0
2017-Oct-04 00:28N 29°37' W 095°01'0 0.0
2017-Oct-03 23:58N 29°37' W 095°01'0 0.0
2017-Oct-03 23:28N 29°37' W 095°01'0 0.0
2017-Oct-03 22:55N 29°37' W 095°01'0 0.0
2017-Oct-03 22:28N 29°37' W 095°01'0 0.0
2017-Oct-03 21:58N 29°37' W 095°01'0 0.0
2017-Oct-03 21:28N 29°37' W 095°01'0 0.0
2017-Oct-03 20:58N 29°37' W 095°01'0 0.0
2017-Oct-03 20:31N 29°37' W 095°01'0 0.0
2017-Oct-03 20:01N 29°37' W 095°01'0 0.0
2017-Oct-03 19:30N 29°37' W 095°01'0 0.0
2017-Oct-03 19:00N 29°37' W 095°01'0 0.0
2017-Oct-03 18:30N 29°37' W 095°01'0 0.0
2017-Oct-03 18:00N 29°37' W 095°01'0 0.0
2017-Oct-03 17:30N 29°37' W 095°01'0 0.0
2017-Oct-03 17:00N 29°37' W 095°01'0 0.0
2017-Oct-03 16:30N 29°37' W 095°01'0 0.0
2017-Oct-03 16:00N 29°37' W 095°01'0 0.0
2017-Oct-03 15:30N 29°37' W 095°01'0 0.0
2017-Oct-03 15:00N 29°37' W 095°01'0 0.0
2017-Oct-03 14:00N 29°37' W 095°01'0 0.0
2017-Oct-03 13:30N 29°37' W 095°01'0 0.0
2017-Oct-03 13:00N 29°37' W 095°01'0 0.0
2017-Oct-03 12:30N 29°37' W 095°01'0 0.0
2017-Oct-03 12:00N 29°37' W 095°01'0 0.0
2017-Oct-03 11:30N 29°37' W 095°01'0 0.0
2017-Oct-03 10:57N 29°37' W 095°01'0 0.2
2017-Oct-03 10:30N 29°37' W 095°01'0 0.0
2017-Oct-03 10:00N 29°37' W 095°01'0 0.0
2017-Oct-03 09:30N 29°37' W 095°01'0 0.0
2017-Oct-03 08:57N 29°37' W 095°01'0 0.0
2017-Oct-03 08:30N 29°37' W 095°01'0 0.0
2017-Oct-03 08:00N 29°37' W 095°01'0 0.0
2017-Oct-03 07:30N 29°37' W 095°01'0 0.0
2017-Oct-03 07:00N 29°37' W 095°01'0 0.0
2017-Oct-03 06:30N 29°37' W 095°01'0 0.0
2017-Oct-03 06:00N 29°37' W 095°01'0 0.0
2017-Oct-03 05:30N 29°37' W 095°01'0 0.0
2017-Oct-03 04:57N 29°37' W 095°01'0 0.0
2017-Oct-03 04:27N 29°37' W 095°01'0 0.0
2017-Oct-03 04:00N 29°37' W 095°01'0 0.0
2017-Oct-03 03:30N 29°37' W 095°01'0 0.0
2017-Oct-03 03:00N 29°37' W 095°01'0 0.0
2017-Oct-03 02:30N 29°37' W 095°01'0 0.0
2017-Oct-03 01:57N 29°37' W 095°01'0 0.0
2017-Oct-03 01:30N 29°37' W 095°01'0 0.0
2017-Oct-03 01:00N 29°37' W 095°01'0 0.0
2017-Oct-03 00:30N 29°37' W 095°01'0 0.0
2017-Oct-02 23:57N 29°37' W 095°01'0 0.0
2017-Oct-02 23:30N 29°37' W 095°01'0 0.0
2017-Oct-02 23:00N 29°37' W 095°01'0 0.0
2017-Oct-02 22:30N 29°37' W 095°01'0 0.0
2017-Oct-02 22:00N 29°37' W 095°01'1 1.7
2017-Oct-02 21:31N 29°37' W 095°00'4 7.5
2017-Oct-02 21:00N 29°35' W 094°56'612.6
2017-Oct-02 20:30N 29°30' W 094°52'  

Dump ship's entire track history